createdAt,value
2023-02-11T00:02:11.176Z,101637.23
2023-02-11T00:04:23.903Z,101638.10
2023-02-11T00:06:38.784Z,101636.17
2023-02-11T00:08:51.634Z,101638.06
2023-02-11T00:11:05.802Z,101640.76
2023-02-11T00:13:18.225Z,101644.96
2023-02-11T00:15:31.828Z,101647.59
2023-02-11T00:17:45.579Z,101649.05
2023-02-11T00:19:59.309Z,101651.29
2023-02-11T00:22:12.980Z,101655.81
2023-02-11T00:24:26.749Z,101655.20
2023-02-11T00:26:41.006Z,101657.48
2023-02-11T00:28:56.101Z,101658.77
2023-02-11T00:31:09.605Z,101656.62
2023-02-11T00:33:23.189Z,101660.52
2023-02-11T00:35:36.344Z,101660.14
2023-02-11T00:37:52.081Z,101661.89
2023-02-11T00:40:06.812Z,101661.17
2023-02-11T00:42:21.065Z,101662.27
2023-02-11T00:44:35.178Z,101666.63
2023-02-11T00:46:48.994Z,101668.68
2023-02-11T00:49:03.693Z,101667.59
2023-02-11T00:51:17.639Z,101665.58
2023-02-11T00:53:31.265Z,101668.54
2023-02-11T00:55:44.430Z,101673.62
2023-02-11T00:57:58.005Z,101672.61
2023-02-11T01:00:13.316Z,101672.64
2023-02-11T01:02:27.344Z,101675.66
2023-02-11T01:04:41.198Z,101677.35
2023-02-11T01:06:54.500Z,101679.48
2023-02-11T01:09:08.443Z,101680.13
2023-02-11T01:11:24.183Z,101678.46
2023-02-11T01:13:40.213Z,101680.64
2023-02-11T01:15:57.467Z,101680.27
2023-02-11T01:18:11.625Z,101677.95
2023-02-11T01:20:26.833Z,101680.55
2023-02-11T01:22:40.798Z,101679.10
2023-02-11T01:24:54.207Z,101675.09
2023-02-11T01:27:07.275Z,101681.84
2023-02-11T01:29:21.793Z,101684.05
2023-02-11T01:31:36.596Z,101688.52
2023-02-11T01:33:50.306Z,101683.34
2023-02-11T01:36:07.648Z,101685.21
2023-02-11T01:38:24.859Z,101688.33
2023-02-11T01:40:40.295Z,101690.27
2023-02-11T01:42:53.551Z,101693.10
2023-02-11T01:45:27.745Z,101693.77
2023-02-11T01:47:40.968Z,101695.09
2023-02-11T01:49:59.142Z,101700.22
2023-02-11T01:52:18.711Z,101702.21
2023-02-11T01:54:52.781Z,101700.19
2023-02-11T01:57:26.100Z,101702.27
2023-02-11T01:59:43.908Z,101704.39
2023-02-11T02:02:00.478Z,101707.27
2023-02-11T02:04:15.261Z,101707.10
2023-02-11T02:06:33.337Z,101701.38
2023-02-11T02:08:52.827Z,101707.20
2023-02-11T02:11:06.211Z,101712.25
2023-02-11T02:13:19.268Z,101712.85
2023-02-11T02:15:36.286Z,101714.29
2023-02-11T02:17:56.181Z,101712.62
2023-02-11T02:20:45.883Z,101711.02
2023-02-11T02:23:14.902Z,101714.59
2023-02-11T02:25:47.007Z,101718.13
2023-02-11T02:28:21.035Z,101720.14
2023-02-11T02:30:59.434Z,101724.20
2023-02-11T02:33:24.936Z,101727.91
2023-02-11T02:35:44.491Z,101725.74
2023-02-11T02:38:06.254Z,101727.16
2023-02-11T02:40:25.446Z,101724.81
2023-02-11T02:42:38.685Z,101729.98
2023-02-11T02:44:56.436Z,101729.45
2023-02-11T02:47:09.207Z,101734.15
2023-02-11T02:49:22.406Z,101731.34
2023-02-11T02:51:51.035Z,101731.05
2023-02-11T02:54:24.161Z,101732.73
2023-02-11T02:56:47.391Z,101731.92
2023-02-11T02:59:23.611Z,101732.10
2023-02-11T03:01:46.233Z,101736.59
2023-02-11T03:04:09.416Z,101735.41
2023-02-11T03:06:33.416Z,101736.12
2023-02-11T03:08:52.144Z,101738.13
2023-02-11T03:11:08.488Z,101741.36
2023-02-11T03:13:25.021Z,101739.37
2023-02-11T03:15:42.120Z,101744.24
2023-02-11T03:17:59.948Z,101744.80
2023-02-11T03:20:17.941Z,101749.46
2023-02-11T03:22:36.659Z,101749.38
2023-02-11T03:24:50.831Z,101752.67
2023-02-11T03:27:10.288Z,101749.73
2023-02-11T03:29:33.949Z,101754.52
2023-02-11T03:31:57.952Z,101753.85
2023-02-11T03:34:16.553Z,101753.46
2023-02-11T03:36:35.923Z,101756.05
2023-02-11T03:38:54.745Z,101758.40
2023-02-11T03:41:09.349Z,101756.39
2023-02-11T03:43:25.217Z,101756.89
2023-02-11T03:45:39.925Z,101761.10
2023-02-11T03:47:59.549Z,101761.85
2023-02-11T03:50:15.836Z,101759.83
2023-02-11T03:52:29.579Z,101763.66
2023-02-11T03:54:45.179Z,101765.39
2023-02-11T03:56:59.760Z,101763.59
2023-02-11T03:59:13.687Z,101765.21
2023-02-11T04:01:26.662Z,101769.61
2023-02-11T04:03:39.584Z,101772.39
2023-02-11T04:05:53.449Z,101775.06
2023-02-11T04:08:08.964Z,101772.56
2023-02-11T04:10:22.317Z,101773.42
2023-02-11T04:12:35.969Z,101779.80
2023-02-11T04:14:50.334Z,101779.94
2023-02-11T04:17:04.014Z,101780.77
2023-02-11T04:19:17.075Z,101780.86
2023-02-11T04:21:30.964Z,101779.26
2023-02-11T04:23:44.014Z,101779.23
2023-02-11T04:25:57.651Z,101777.54
2023-02-11T04:28:10.643Z,101780.19
2023-02-11T04:30:24.582Z,101782.77
2023-02-11T04:32:37.924Z,101787.24
2023-02-11T04:34:51.662Z,101786.34
2023-02-11T04:37:05.297Z,101787.57
2023-02-11T04:39:19.129Z,101788.73
2023-02-11T04:41:33.327Z,101789.15
2023-02-11T04:43:46.501Z,101788.09
2023-02-11T04:46:02.532Z,101789.58
2023-02-11T04:48:15.128Z,101796.91
2023-02-11T04:50:27.815Z,101798.96
2023-02-11T04:52:40.354Z,101800.76
2023-02-11T04:54:53.020Z,101803.91
2023-02-11T04:57:05.527Z,101803.81
2023-02-11T04:59:18.195Z,101801.98
2023-02-11T05:01:31.150Z,101803.30
2023-02-11T05:03:44.124Z,101802.97
2023-02-11T05:05:58.611Z,101806.44
2023-02-11T05:08:14.055Z,101807.02
2023-02-11T05:10:27.425Z,101807.69
2023-02-11T05:12:40.615Z,101811.77
2023-02-11T05:14:53.850Z,101813.43
2023-02-11T05:17:06.698Z,101817.09
2023-02-11T05:19:19.790Z,101819.37
2023-02-11T05:21:33.905Z,101824.76
2023-02-11T05:23:48.326Z,101823.52
2023-02-11T05:26:01.332Z,101823.04
2023-02-11T05:28:14.051Z,101823.19
2023-02-11T05:30:28.546Z,101824.13
2023-02-11T05:32:41.317Z,101826.27
2023-02-11T05:34:55.008Z,101824.12
2023-02-11T05:37:09.925Z,101827.09
2023-02-11T05:39:23.496Z,101825.36
2023-02-11T05:41:37.268Z,101826.52
2023-02-11T05:43:50.994Z,101825.21
2023-02-11T05:46:04.520Z,101825.17
2023-02-11T05:48:17.345Z,101824.90
2023-02-11T05:50:30.812Z,101824.08
2023-02-11T05:52:43.695Z,101821.08
2023-02-11T05:54:57.733Z,101828.73
2023-02-11T05:57:11.996Z,101831.27
2023-02-11T05:59:24.553Z,101827.25
2023-02-11T06:01:37.434Z,101832.29
2023-02-11T06:03:51.130Z,101830.31
2023-02-11T06:06:04.245Z,101836.39
2023-02-11T06:08:18.302Z,101841.77
2023-02-11T06:10:32.136Z,101845.53
2023-02-11T06:12:45.959Z,101845.48
2023-02-11T06:15:00.025Z,101843.60
2023-02-11T06:17:15.525Z,101847.77
2023-02-11T06:19:29.885Z,101850.40
2023-02-11T06:21:44.524Z,101852.81
2023-02-11T06:23:57.765Z,101862.09
2023-02-11T06:26:12.574Z,101862.69
2023-02-11T06:28:25.234Z,101869.15
2023-02-11T06:30:39.397Z,101869.01
2023-02-11T06:32:52.517Z,101866.64
2023-02-11T06:35:06.386Z,101860.98
2023-02-11T06:37:19.009Z,101866.96
2023-02-11T06:39:35.134Z,101873.41
2023-02-11T06:41:47.644Z,101870.81
2023-02-11T06:44:00.839Z,101875.40
2023-02-11T06:46:14.280Z,101876.58
2023-02-11T06:48:27.749Z,101876.85
2023-02-11T06:50:41.414Z,101874.88
2023-02-11T06:52:54.007Z,101876.63
2023-02-11T06:55:08.492Z,101883.00
2023-02-11T06:57:21.100Z,101880.73
2023-02-11T06:59:33.619Z,101887.13
2023-02-11T07:01:47.360Z,101887.41
2023-02-11T07:04:00.770Z,101889.23
2023-02-11T07:06:15.250Z,101889.81
2023-02-11T07:08:28.006Z,101892.27
2023-02-11T07:10:42.027Z,101895.80
2023-02-11T07:12:56.002Z,101904.66
2023-02-11T07:15:11.152Z,101906.39
2023-02-11T07:17:25.555Z,101904.18
2023-02-11T07:19:39.904Z,101908.45
2023-02-11T07:21:52.453Z,101906.72
2023-02-11T07:24:05.109Z,101905.10
2023-02-11T07:26:21.738Z,101907.52
2023-02-11T07:28:35.660Z,101909.39
2023-02-11T07:30:48.486Z,101910.73
2023-02-11T07:33:03.011Z,101914.61
2023-02-11T07:35:16.748Z,101920.39
2023-02-11T07:37:30.317Z,101930.80
2023-02-11T07:39:43.551Z,101933.08
2023-02-11T07:41:56.198Z,101935.95
2023-02-11T07:44:10.983Z,101935.61
2023-02-11T07:46:26.429Z,101938.94
2023-02-11T07:48:40.116Z,101942.63
2023-02-11T07:50:53.915Z,101945.21
2023-02-11T07:53:07.458Z,101947.02
2023-02-11T07:55:20.523Z,101948.38
2023-02-11T07:57:33.912Z,101949.18
2023-02-11T07:59:47.247Z,101952.30
2023-02-11T08:02:01.257Z,101954.43
2023-02-11T08:04:15.109Z,101956.67
2023-02-11T08:06:31.551Z,101955.29
2023-02-11T08:08:45.469Z,101955.05
2023-02-11T08:10:59.326Z,101958.29
2023-02-11T08:13:12.265Z,101957.66
2023-02-11T08:15:25.253Z,101960.60
2023-02-11T08:17:38.760Z,101962.19
2023-02-11T08:19:52.810Z,101960.13
2023-02-11T08:22:07.403Z,101968.73
2023-02-11T08:24:21.760Z,101973.38
2023-02-11T08:26:37.810Z,101970.70
2023-02-11T08:28:54.919Z,101964.95
2023-02-11T08:31:15.649Z,101970.27
2023-02-11T08:33:28.256Z,101966.55
2023-02-11T08:35:43.669Z,101962.65
2023-02-11T08:37:57.144Z,101966.24
2023-02-11T08:40:12.249Z,101968.55
2023-02-11T08:42:24.967Z,101972.60
2023-02-11T08:44:38.954Z,101970.80
2023-02-11T08:46:51.978Z,101968.75
2023-02-11T08:49:04.621Z,101966.95
2023-02-11T08:51:20.409Z,101970.80
2023-02-11T08:53:33.189Z,101967.88
2023-02-11T08:55:51.422Z,101967.19
2023-02-11T08:58:04.142Z,101971.80
2023-02-11T09:00:19.788Z,101971.48
2023-02-11T09:02:32.985Z,101964.80
2023-02-11T09:04:46.787Z,101963.83
2023-02-11T09:07:00.148Z,101960.54
2023-02-11T09:09:16.967Z,101962.39
2023-02-11T09:11:33.300Z,101958.00
2023-02-11T09:13:47.470Z,101956.42
2023-02-11T09:16:00.407Z,101961.13
2023-02-11T09:18:13.177Z,101960.58
2023-02-11T09:20:27.645Z,101961.34
2023-02-11T09:22:40.387Z,101960.71
2023-02-11T09:24:52.895Z,101960.20
2023-02-11T09:27:06.056Z,101960.57
2023-02-11T09:29:19.335Z,101956.14
2023-02-11T09:31:35.175Z,101957.18
2023-02-11T09:33:50.683Z,101958.03
2023-02-11T09:36:06.954Z,101960.35
2023-02-11T09:38:19.460Z,101957.02
2023-02-11T09:40:32.300Z,101955.30
2023-02-11T09:43:04.259Z,101957.35
2023-02-11T09:45:21.655Z,101966.89
2023-02-11T09:47:37.484Z,101966.84
2023-02-11T09:49:53.231Z,101960.40
2023-02-11T09:52:11.553Z,101956.86
2023-02-11T09:54:30.056Z,101959.67
2023-02-11T09:56:43.098Z,101964.60
2023-02-11T09:58:55.687Z,101965.23
2023-02-11T10:01:14.670Z,101972.18
2023-02-11T10:03:49.248Z,101981.98
2023-02-11T10:06:15.686Z,101982.42
2023-02-11T10:08:39.615Z,101979.80
2023-02-11T10:10:57.454Z,101990.13
2023-02-11T10:13:34.742Z,101990.64
2023-02-11T10:15:55.523Z,102002.77
2023-02-11T10:18:30.615Z,102008.26
2023-02-11T10:20:52.102Z,102020.11
2023-02-11T10:23:12.897Z,102020.33
2023-02-11T10:25:37.061Z,102016.77
2023-02-11T10:27:49.622Z,102022.52
2023-02-11T10:30:10.046Z,102029.25
2023-02-11T10:32:35.115Z,102026.36
2023-02-11T10:34:48.017Z,102031.45
2023-02-11T10:37:01.454Z,102027.45
2023-02-11T10:39:19.977Z,102030.39
2023-02-11T10:41:36.026Z,102023.75
2023-02-11T10:43:48.716Z,102025.93
2023-02-11T10:46:03.026Z,102029.15
2023-02-11T10:48:43.337Z,102029.20
2023-02-11T10:51:09.885Z,102021.75
2023-02-11T10:53:25.540Z,102021.59
2023-02-11T10:55:38.925Z,102018.35
2023-02-11T10:57:59.553Z,102017.07
2023-02-11T11:00:32.276Z,102017.02
2023-02-11T11:02:47.789Z,102017.97
2023-02-11T11:05:07.011Z,102022.23
2023-02-11T11:07:26.310Z,102029.21
2023-02-11T11:09:50.431Z,102026.22
2023-02-11T11:12:02.993Z,102028.67
2023-02-11T11:14:27.147Z,102026.52
2023-02-11T11:16:40.332Z,102028.05
2023-02-11T11:18:56.331Z,102030.31
2023-02-11T11:21:16.560Z,102031.36
2023-02-11T11:23:30.878Z,102032.23
2023-02-11T11:25:47.074Z,102027.20
2023-02-11T11:28:04.004Z,102020.84
2023-02-11T11:30:23.219Z,102017.17
2023-02-11T11:32:38.170Z,102014.38
2023-02-11T11:34:56.840Z,102017.41
2023-02-11T11:37:18.052Z,102021.54
2023-02-11T11:39:34.172Z,102031.98
2023-02-11T11:41:56.470Z,102035.64
2023-02-11T11:44:26.934Z,102032.41
2023-02-11T11:46:45.562Z,102030.65
2023-02-11T11:49:06.508Z,102025.34
2023-02-11T11:51:21.008Z,102021.02
2023-02-11T11:53:41.033Z,102020.99
2023-02-11T11:56:00.310Z,102023.55
2023-02-11T11:58:19.682Z,102032.30
2023-02-11T12:00:35.506Z,102037.06
2023-02-11T12:03:14.097Z,102041.61
2023-02-11T12:05:35.516Z,102044.79
2023-02-11T12:08:06.992Z,102036.19
2023-02-11T12:10:47.115Z,102030.20
2023-02-11T12:13:07.756Z,102038.40
2023-02-11T12:15:34.523Z,102040.63
2023-02-11T12:18:02.524Z,102042.34
2023-02-11T12:20:27.254Z,102036.08
2023-02-11T12:22:54.053Z,102031.73
2023-02-11T12:25:28.399Z,102031.55
2023-02-11T12:27:51.334Z,102029.41
2023-02-11T12:30:16.579Z,102029.77
2023-02-11T12:32:37.543Z,102033.17
2023-02-11T12:35:09.937Z,102039.55
2023-02-11T12:37:36.054Z,102048.47
2023-02-11T12:39:54.675Z,102048.90
2023-02-11T12:42:49.273Z,102055.67
2023-02-11T12:45:22.012Z,102056.95
2023-02-11T12:47:44.585Z,102059.25
2023-02-11T12:50:17.099Z,102058.10
2023-02-11T12:52:35.916Z,102057.15
2023-02-11T12:54:57.018Z,102056.02
2023-02-11T12:57:18.429Z,102050.31
2023-02-11T12:59:43.837Z,102051.95
2023-02-11T13:01:59.109Z,102050.90
2023-02-11T13:04:17.039Z,102049.91
2023-02-11T13:06:37.796Z,102055.99
2023-02-11T13:08:54.549Z,102050.56
2023-02-11T13:11:14.494Z,102045.66
2023-02-11T13:13:29.887Z,102046.11
2023-02-11T13:15:43.465Z,102047.67
2023-02-11T13:18:03.975Z,102049.62
2023-02-11T13:20:31.812Z,102048.09
2023-02-11T13:22:53.909Z,102045.27
2023-02-11T13:25:19.215Z,102046.30
2023-02-11T13:27:41.445Z,102045.55
2023-02-11T13:30:29.050Z,102051.83
2023-02-11T13:33:21.087Z,102053.95
2023-02-11T13:35:39.257Z,102055.41
2023-02-11T13:37:53.840Z,102056.39
2023-02-11T13:40:10.770Z,102064.58
2023-02-11T13:42:23.569Z,102060.83
2023-02-11T13:44:39.543Z,102066.48
2023-02-11T13:47:02.407Z,102070.75
2023-02-11T13:49:26.476Z,102070.48
2023-02-11T13:51:45.504Z,102070.96
2023-02-11T13:54:00.885Z,102068.89
2023-02-11T13:56:25.503Z,102068.25
2023-02-11T13:58:53.216Z,102066.89
2023-02-11T14:01:06.730Z,102068.19
2023-02-11T14:03:54.152Z,102072.58
2023-02-11T14:06:41.906Z,102078.64
2023-02-11T14:09:24.332Z,102076.45
2023-02-11T14:12:34.184Z,102073.35
2023-02-11T14:15:17.026Z,102078.42
2023-02-11T14:17:38.325Z,102084.71
2023-02-11T14:19:53.020Z,102085.39
2023-02-11T14:22:17.628Z,102086.01
2023-02-11T14:24:56.293Z,102079.48
2023-02-11T14:27:13.316Z,102078.04
2023-02-11T14:29:36.671Z,102079.92
2023-02-11T14:31:55.989Z,102077.92
2023-02-11T14:34:33.752Z,102070.07
2023-02-11T14:37:06.823Z,102069.30
2023-02-11T14:39:26.043Z,102077.28
2023-02-11T14:41:45.017Z,102082.78
2023-02-11T14:44:01.483Z,102080.45
2023-02-11T14:46:15.283Z,102082.61
2023-02-11T14:48:31.593Z,102087.29
2023-02-11T14:50:49.800Z,102088.23
2023-02-11T14:53:07.315Z,102092.67
2023-02-11T14:55:32.122Z,102092.55
2023-02-11T14:57:46.884Z,102092.02
2023-02-11T15:00:06.430Z,102091.64
2023-02-11T15:02:35.761Z,102087.95
2023-02-11T15:04:48.613Z,102086.81
2023-02-11T15:07:02.507Z,102085.57
2023-02-11T15:09:25.171Z,102091.33
2023-02-11T15:11:42.767Z,102100.66
2023-02-11T15:13:57.855Z,102103.71
2023-02-11T15:16:16.570Z,102106.19
2023-02-11T15:18:35.091Z,102111.23
2023-02-11T15:20:47.753Z,102114.66
2023-02-11T15:23:03.055Z,102110.21
2023-02-11T15:25:21.102Z,102106.36
2023-02-11T15:27:40.956Z,102107.83
2023-02-11T15:29:55.166Z,102113.96
2023-02-11T15:32:16.627Z,102115.86
2023-02-11T15:34:29.545Z,102116.14
2023-02-11T15:36:51.908Z,102114.78
2023-02-11T15:39:31.790Z,102117.83
2023-02-11T15:41:45.467Z,102119.12
2023-02-11T15:43:58.271Z,102115.02
2023-02-11T15:46:12.850Z,102116.96
2023-02-11T15:48:31.719Z,102125.64
2023-02-11T15:50:47.934Z,102125.91
2023-02-11T15:53:05.714Z,102135.83
2023-02-11T15:55:22.812Z,102141.39
2023-02-11T15:57:37.886Z,102146.70
2023-02-11T15:59:55.252Z,102148.86
2023-02-11T16:02:18.622Z,102147.00
2023-02-11T16:04:32.431Z,102148.48
2023-02-11T16:06:48.993Z,102148.91
2023-02-11T16:09:07.320Z,102151.17
2023-02-11T16:11:33.576Z,102151.02
2023-02-11T16:13:52.815Z,102152.09
2023-02-11T16:16:09.033Z,102151.70
2023-02-11T16:18:38.340Z,102158.03
2023-02-11T16:20:55.586Z,102164.25
2023-02-11T16:23:10.508Z,102167.55
2023-02-11T16:25:26.017Z,102172.00
2023-02-11T16:27:44.286Z,102171.98
2023-02-11T16:29:58.734Z,102173.31
2023-02-11T16:32:19.568Z,102175.41
2023-02-11T16:34:34.407Z,102173.61
2023-02-11T16:36:47.893Z,102174.46
2023-02-11T16:39:01.482Z,102173.51
2023-02-11T16:41:15.757Z,102163.63
2023-02-11T16:43:29.633Z,102168.43
2023-02-11T16:45:43.756Z,102174.95
2023-02-11T16:47:56.960Z,102171.40
2023-02-11T16:50:22.305Z,102169.65
2023-02-11T16:52:38.276Z,102170.10
2023-02-11T16:54:52.243Z,102171.77
2023-02-11T16:57:12.794Z,102171.20
2023-02-11T16:59:25.905Z,102171.66
2023-02-11T17:01:41.458Z,102166.23
2023-02-11T17:03:55.763Z,102168.22
2023-02-11T17:06:10.122Z,102160.01
2023-02-11T17:08:23.228Z,102164.91
2023-02-11T17:10:38.733Z,102167.33
2023-02-11T17:12:53.630Z,102169.52
2023-02-11T17:15:07.706Z,102169.74
2023-02-11T17:17:23.074Z,102165.60
2023-02-11T17:19:36.383Z,102172.13
2023-02-11T17:21:51.563Z,102169.10
2023-02-11T17:24:05.234Z,102169.49
2023-02-11T17:26:20.795Z,102167.45
2023-02-11T17:28:33.877Z,102170.61
2023-02-11T17:30:48.793Z,102175.91
2023-02-11T17:33:02.404Z,102179.95
2023-02-11T17:35:17.450Z,102176.33
2023-02-11T17:37:31.387Z,102180.26
2023-02-11T17:39:46.439Z,102177.98
2023-02-11T17:42:01.120Z,102182.63
2023-02-11T17:44:16.642Z,102184.77
2023-02-11T17:46:32.019Z,102187.20
2023-02-11T17:48:45.178Z,102187.12
2023-02-11T17:50:58.402Z,102192.49
2023-02-11T17:53:13.150Z,102190.41
2023-02-11T17:55:26.498Z,102193.59
2023-02-11T17:57:39.201Z,102196.63
2023-02-11T17:59:52.782Z,102199.46
2023-02-11T18:02:07.499Z,102197.53
2023-02-11T18:04:22.753Z,102196.02
2023-02-11T18:06:36.675Z,102196.91
2023-02-11T18:08:49.617Z,102196.52
2023-02-11T18:11:02.553Z,102195.47
2023-02-11T18:13:15.136Z,102199.73
2023-02-11T18:15:29.792Z,102198.96
2023-02-11T18:17:42.610Z,102202.73
2023-02-11T18:19:58.140Z,102197.08
2023-02-11T18:22:13.614Z,102202.58
2023-02-11T18:24:27.309Z,102203.54
2023-02-11T18:26:41.349Z,102204.42
2023-02-11T18:28:54.304Z,102200.81
2023-02-11T18:31:07.661Z,102200.85
2023-02-11T18:33:20.543Z,102202.30
2023-02-11T18:35:34.362Z,102202.75
2023-02-11T18:37:47.482Z,102193.29
2023-02-11T18:40:01.163Z,102184.65
2023-02-11T18:42:14.336Z,102184.28
2023-02-11T18:44:28.205Z,102186.81
2023-02-11T18:46:42.259Z,102186.09
2023-02-11T18:48:56.465Z,102185.95
2023-02-11T18:51:14.597Z,102186.80
2023-02-11T18:53:28.510Z,102187.75
2023-02-11T18:55:43.543Z,102194.52
2023-02-11T18:57:56.685Z,102195.54
2023-02-11T19:00:11.328Z,102197.09
2023-02-11T19:02:25.956Z,102194.05
2023-02-11T19:04:41.155Z,102194.23
2023-02-11T19:06:55.191Z,102194.34
2023-02-11T19:09:10.951Z,102192.96
2023-02-11T19:11:44.477Z,102187.88
2023-02-11T19:13:58.407Z,102183.14
2023-02-11T19:16:15.904Z,102177.56
2023-02-11T19:18:28.691Z,102178.48
2023-02-11T19:20:44.731Z,102176.67
2023-02-11T19:22:57.582Z,102166.38
2023-02-11T19:25:10.758Z,102163.55
2023-02-11T19:27:23.706Z,102159.49
2023-02-11T19:29:37.761Z,102158.41
2023-02-11T19:31:51.793Z,102153.48
2023-02-11T19:34:06.260Z,102151.45
2023-02-11T19:36:21.756Z,102143.13
2023-02-11T19:38:35.383Z,102142.10
2023-02-11T19:40:48.183Z,102140.80
2023-02-11T19:43:01.221Z,102133.80
2023-02-11T19:45:14.632Z,102125.00
2023-02-11T19:47:28.765Z,102116.52
2023-02-11T19:49:41.940Z,102113.64
2023-02-11T19:51:54.841Z,102115.71
2023-02-11T19:54:10.104Z,102117.41
2023-02-11T19:56:24.176Z,102122.55
2023-02-11T19:58:37.030Z,102123.27
2023-02-11T20:00:51.240Z,102119.19
2023-02-11T20:03:06.827Z,102115.04
2023-02-11T20:05:20.643Z,102110.42
2023-02-11T20:07:34.275Z,102115.38
2023-02-11T20:09:48.144Z,102113.79
2023-02-11T20:12:01.758Z,102111.21
2023-02-11T20:14:18.603Z,102115.64
2023-02-11T20:16:47.701Z,102127.30
2023-02-11T20:19:03.342Z,102130.63
2023-02-11T20:21:17.806Z,102128.05
2023-02-11T20:23:30.516Z,102129.60
2023-02-11T20:25:46.681Z,102129.75
2023-02-11T20:28:00.499Z,102122.89
2023-02-11T20:30:14.766Z,102120.58
2023-02-11T20:32:27.950Z,102122.21
2023-02-11T20:34:41.365Z,102118.70
2023-02-11T20:36:56.018Z,102114.08
2023-02-11T20:39:10.532Z,102108.90
2023-02-11T20:41:26.248Z,102107.59
2023-02-11T20:43:40.055Z,102102.60
2023-02-11T20:45:53.225Z,102102.77
2023-02-11T20:48:09.472Z,102101.38
2023-02-11T20:50:23.968Z,102095.66
2023-02-11T20:52:38.015Z,102094.90
2023-02-11T20:54:50.661Z,102094.52
2023-02-11T20:57:03.921Z,102090.17
2023-02-11T20:59:19.624Z,102085.48
2023-02-11T21:01:36.314Z,102085.77
2023-02-11T21:03:53.499Z,102082.79
2023-02-11T21:06:07.762Z,102077.20
2023-02-11T21:08:21.383Z,102072.61
2023-02-11T21:10:34.786Z,102065.90
2023-02-11T21:12:49.923Z,102066.35
2023-02-11T21:15:05.931Z,102063.54
2023-02-11T21:17:19.151Z,102059.45
2023-02-11T21:19:31.891Z,102053.99
2023-02-11T21:21:45.934Z,102043.19
2023-02-11T21:23:59.513Z,102039.95
2023-02-11T21:26:12.807Z,102033.90
2023-02-11T21:28:28.946Z,102035.15
2023-02-11T21:30:44.138Z,102034.45
2023-02-11T21:32:57.981Z,102028.22
2023-02-11T21:35:12.829Z,102025.27
2023-02-11T21:37:27.462Z,102022.65
2023-02-11T21:39:40.634Z,102015.45
2023-02-11T21:41:56.819Z,102019.86
2023-02-11T21:44:10.932Z,102017.08
2023-02-11T21:46:25.452Z,102013.60
2023-02-11T21:48:38.676Z,102011.39
2023-02-11T21:50:54.180Z,102014.46
2023-02-11T21:53:07.372Z,102010.76
2023-02-11T21:55:21.671Z,102008.41
2023-02-11T21:57:35.241Z,102006.15
2023-02-11T21:59:49.251Z,101995.20
2023-02-11T22:02:02.941Z,101996.70
2023-02-11T22:04:18.125Z,101994.47
2023-02-11T22:06:33.242Z,101992.50
2023-02-11T22:08:46.783Z,101987.68
2023-02-11T22:11:04.407Z,101986.88
2023-02-11T22:13:17.855Z,101987.19
2023-02-11T22:15:31.350Z,101984.17
2023-02-11T22:17:44.490Z,101980.46
2023-02-11T22:19:57.630Z,101984.64
2023-02-11T22:22:10.556Z,101988.77
2023-02-11T22:24:23.601Z,101987.14
2023-02-11T22:26:36.529Z,101986.73
2023-02-11T22:28:49.817Z,101985.58
2023-02-11T22:31:03.103Z,101984.08
2023-02-11T22:33:15.643Z,101986.73
2023-02-11T22:35:28.198Z,101982.79
2023-02-11T22:37:40.985Z,101976.84
2023-02-11T22:39:54.283Z,101978.58
2023-02-11T22:42:08.074Z,101979.58
2023-02-11T22:44:22.664Z,101978.49
2023-02-11T22:46:35.398Z,101973.83
2023-02-11T22:48:48.430Z,101973.17
2023-02-11T22:51:06.884Z,101969.38
2023-02-11T22:53:19.681Z,101969.80
2023-02-11T22:55:32.597Z,101970.42
2023-02-11T22:57:45.230Z,101965.94
2023-02-11T22:59:57.997Z,101960.27
2023-02-11T23:02:10.908Z,101953.72
2023-02-11T23:04:24.357Z,101948.33
2023-02-11T23:06:38.588Z,101949.08
2023-02-11T23:08:52.381Z,101941.11
2023-02-11T23:11:09.711Z,101935.27
2023-02-11T23:13:23.306Z,101938.32
2023-02-11T23:15:37.327Z,101936.94
2023-02-11T23:17:53.227Z,101933.50
2023-02-11T23:20:06.731Z,101931.91
2023-02-11T23:22:20.329Z,101937.72
2023-02-11T23:24:33.011Z,101940.93
2023-02-11T23:26:46.748Z,101940.95
2023-02-11T23:29:00.995Z,101944.45
2023-02-11T23:31:22.161Z,101945.29
2023-02-11T23:33:36.150Z,101939.02
2023-02-11T23:35:50.141Z,101936.96
2023-02-11T23:38:03.397Z,101933.46
2023-02-11T23:40:18.666Z,101929.98
2023-02-11T23:42:32.795Z,101925.85
2023-02-11T23:44:47.187Z,101922.61
2023-02-11T23:47:01.116Z,101925.04
2023-02-11T23:49:16.585Z,101922.52
2023-02-11T23:51:30.892Z,101917.54
2023-02-11T23:53:46.748Z,101921.16
2023-02-11T23:56:02.205Z,101920.48
2023-02-11T23:58:15.200Z,101914.41
